createdAt,value
2018-07-10T00:24:18.882Z,2.23
2018-07-10T00:26:49.393Z,1.87
2018-07-10T00:29:19.422Z,2.40
2018-07-10T00:31:49.321Z,2.10
2018-07-10T00:34:19.537Z,1.90
2018-07-10T00:36:50.084Z,2.43
2018-07-10T00:42:18.793Z,1.90
2018-07-10T00:44:49.124Z,2.00
2018-07-10T00:47:20.066Z,1.97
2018-07-10T00:49:51.453Z,2.20
2018-07-10T00:52:33.662Z,2.10
2018-07-10T00:55:04.414Z,2.00
2018-07-10T00:57:35.575Z,1.87
2018-07-10T01:00:06.036Z,2.27
2018-07-10T01:02:48.717Z,2.10
2018-07-10T01:05:19.458Z,1.90
2018-07-10T01:07:50.197Z,2.10
2018-07-10T01:10:21.739Z,2.33
2018-07-10T01:12:51.856Z,1.90
2018-07-10T01:15:23.369Z,2.10
2018-07-10T01:17:54.659Z,2.00
2018-07-10T01:20:24.641Z,2.00
2018-07-10T01:22:55.209Z,2.40
2018-07-10T01:25:25.839Z,2.07
2018-07-10T01:27:55.815Z,2.20
2018-07-10T01:30:25.766Z,2.20
2018-07-10T01:33:13.190Z,2.00
2018-07-10T01:35:43.086Z,1.87
2018-07-10T01:38:13.496Z,1.90
2018-07-10T01:40:44.345Z,2.10
2018-07-10T01:43:14.563Z,1.90
2018-07-10T01:45:44.301Z,1.90
2018-07-10T01:57:15.151Z,2.13
2018-07-10T01:59:45.265Z,2.00
2018-07-10T02:02:14.996Z,1.90
2018-07-10T02:04:44.972Z,1.80
2018-07-10T02:07:32.490Z,1.70
2018-07-10T02:10:02.824Z,1.83
2018-07-10T02:12:33.789Z,2.20
2018-07-10T02:15:04.097Z,2.03
2018-07-10T02:29:07.931Z,2.10
2018-07-10T02:31:38.073Z,2.23
2018-07-10T02:34:08.270Z,2.27
2018-07-10T02:36:37.996Z,2.40
2018-07-10T02:39:08.125Z,2.30
2018-07-10T02:41:38.223Z,2.10
2018-07-10T02:44:07.932Z,2.00
2018-07-10T02:49:41.704Z,2.13
2018-07-10T02:52:12.278Z,1.90
2018-07-10T03:07:54.858Z,2.20
2018-07-10T03:10:26.924Z,2.03
2018-07-10T03:12:57.307Z,1.83
2018-07-10T03:36:07.229Z,2.30
2018-07-10T03:38:39.310Z,2.13
2018-07-10T03:46:53.053Z,1.87
2018-07-10T03:49:24.062Z,2.57
2018-07-10T03:51:58.893Z,2.00
2018-07-10T03:54:31.606Z,2.10
2018-07-10T04:02:33.784Z,2.17
2018-07-10T04:07:41.852Z,1.90
2018-07-10T04:10:14.745Z,2.20
2018-07-10T04:12:46.815Z,2.13
2018-07-10T04:15:17.946Z,2.20
2018-07-10T04:18:05.127Z,2.20
2018-07-10T04:20:57.947Z,2.37
2018-07-10T04:23:45.167Z,2.13
2018-07-10T04:26:20.668Z,2.07
2018-07-10T04:29:02.732Z,2.47
2018-07-10T04:31:49.558Z,2.47
2018-07-10T04:34:20.550Z,2.47
2018-07-10T04:36:52.300Z,2.20
2018-07-10T04:39:22.304Z,2.40
2018-07-10T04:42:04.175Z,2.43
2018-07-10T04:44:39.140Z,2.20
2018-07-10T04:47:14.245Z,2.07
2018-07-10T04:50:05.290Z,2.00
2018-07-10T04:52:35.846Z,2.43
2018-07-10T04:55:15.370Z,2.30
2018-07-10T04:57:56.871Z,2.43
2018-07-10T05:00:27.641Z,2.00
2018-07-10T05:03:01.513Z,2.33
2018-07-10T05:05:33.814Z,2.70
2018-07-10T05:08:09.173Z,2.20
2018-07-10T05:10:40.109Z,2.40
2018-07-10T05:13:11.002Z,2.20
2018-07-10T05:15:50.212Z,2.30
2018-07-10T05:18:20.505Z,1.97
2018-07-10T05:20:51.514Z,2.40
2018-07-10T05:23:22.409Z,2.70
2018-07-10T05:26:02.934Z,2.47
2018-07-10T05:28:38.640Z,2.40
2018-07-10T05:31:10.565Z,2.20
2018-07-10T05:33:43.379Z,2.40
2018-07-10T05:36:13.394Z,2.47
2018-07-10T05:51:50.231Z,3.03
2018-07-10T05:54:20.748Z,3.33
2018-07-10T05:56:51.725Z,3.30
2018-07-10T05:59:21.780Z,3.37
2018-07-10T06:01:51.841Z,2.97
2018-07-10T06:04:21.522Z,3.30
2018-07-10T06:06:52.797Z,3.43
2018-07-10T06:09:22.441Z,3.40
2018-07-10T06:11:52.219Z,3.73
2018-07-10T06:14:22.324Z,4.50
2018-07-10T06:17:01.160Z,3.97
2018-07-10T06:19:30.845Z,3.70
2018-07-10T06:22:03.059Z,4.20
2018-07-10T06:24:32.792Z,4.20
2018-07-10T06:27:04.398Z,3.90
2018-07-10T06:29:56.273Z,3.77
2018-07-10T06:32:27.713Z,3.40
2018-07-10T06:35:08.701Z,3.93
2018-07-10T06:37:41.947Z,4.80
2018-07-10T06:40:16.640Z,4.50
2018-07-10T06:43:15.108Z,4.47
2018-07-10T06:45:50.708Z,4.47
2018-07-10T06:48:22.438Z,4.07
2018-07-10T06:50:52.500Z,5.27
2018-07-10T06:53:26.475Z,4.50
2018-07-10T06:55:58.426Z,5.00
2018-07-10T06:58:33.219Z,5.03
2018-07-10T07:01:02.924Z,5.63
2018-07-10T07:03:34.040Z,4.73
2018-07-10T07:06:05.287Z,5.07
2018-07-10T07:08:35.120Z,5.90
2018-07-10T07:11:05.051Z,4.97
2018-07-10T07:13:38.656Z,5.43
2018-07-10T07:16:08.564Z,5.40
2018-07-10T07:18:39.343Z,5.40
2018-07-10T07:21:18.360Z,4.83
2018-07-10T07:23:49.306Z,5.10
2018-07-10T07:26:19.753Z,5.50
2018-07-10T07:29:05.587Z,6.30
2018-07-10T07:31:35.966Z,6.50
2018-07-10T07:34:06.587Z,6.07
2018-07-10T07:39:36.024Z,5.53
2018-07-10T07:42:07.286Z,5.97
2018-07-10T07:50:52.277Z,6.30
2018-07-10T07:53:23.409Z,8.03
2018-07-10T07:55:53.840Z,7.90
2018-07-10T07:58:31.074Z,7.67
2018-07-10T08:01:02.161Z,8.17
2018-07-10T08:03:33.088Z,7.77
2018-07-10T08:06:08.945Z,8.00
2018-07-10T08:08:40.316Z,7.37
2018-07-10T08:11:10.708Z,7.43
2018-07-10T08:13:42.071Z,7.30
2018-07-10T08:16:12.329Z,7.83
2018-07-10T08:18:50.595Z,7.57
2018-07-10T08:21:21.133Z,9.17
2018-07-10T08:23:52.475Z,8.70
2018-07-10T08:26:24.605Z,8.13
2018-07-10T08:28:56.505Z,7.73
2018-07-10T08:31:27.134Z,8.03
2018-07-10T08:33:58.222Z,8.90
2018-07-10T08:36:51.762Z,7.70
2018-07-10T08:39:25.842Z,7.20
2018-07-10T08:41:57.723Z,11.67
2018-07-10T08:44:28.885Z,7.53
2018-07-10T08:46:59.926Z,7.47
2018-07-10T08:49:33.605Z,8.13
2018-07-10T08:54:57.628Z,7.33
2018-07-10T08:57:28.847Z,7.17
2018-07-10T09:12:16.538Z,5.87
2018-07-10T09:14:47.359Z,5.10
2018-07-10T09:20:28.030Z,5.40
2018-07-10T09:22:58.282Z,5.10
2018-07-10T09:34:29.992Z,8.20
2018-07-10T09:38:04.384Z,8.90
2018-07-10T09:40:38.699Z,9.40
2018-07-10T09:43:09.061Z,10.80
2018-07-10T09:45:39.576Z,10.50
2018-07-10T09:48:10.623Z,11.50
2018-07-10T09:50:44.771Z,10.43
2018-07-10T09:53:29.026Z,10.10
2018-07-10T10:01:39.709Z,9.33
2018-07-10T10:10:31.367Z,7.73
2018-07-10T10:13:12.633Z,8.50
2018-07-10T10:15:51.710Z,8.17
2018-07-10T10:18:23.933Z,9.10
2018-07-10T10:20:53.900Z,7.90
2018-07-10T10:23:28.409Z,8.00
2018-07-10T10:25:58.198Z,8.10
2018-07-10T10:28:27.894Z,7.07
2018-07-10T10:30:59.974Z,7.20
2018-07-10T10:33:29.767Z,8.13
2018-07-10T10:35:59.472Z,8.17
2018-07-10T10:38:38.188Z,8.10
2018-07-10T10:41:08.168Z,7.67
2018-07-10T10:43:38.149Z,7.37
2018-07-10T10:46:08.558Z,7.40
2018-07-10T10:48:38.372Z,7.63
2018-07-10T10:51:08.034Z,7.97
2018-07-10T10:53:43.767Z,7.53
2018-07-10T10:58:51.256Z,7.90
2018-07-10T11:01:21.375Z,6.90
2018-07-10T11:03:51.302Z,7.57
2018-07-10T11:06:28.283Z,6.43
2018-07-10T11:08:58.949Z,7.33
2018-07-10T11:11:31.097Z,7.83
2018-07-10T11:14:10.607Z,7.30
2018-07-10T11:19:40.444Z,7.57
2018-07-10T11:22:13.171Z,7.73
2018-07-10T11:24:57.418Z,8.27
2018-07-10T11:28:05.235Z,7.60
2018-07-10T11:30:35.628Z,7.20
2018-07-10T11:33:06.377Z,7.67
2018-07-10T11:35:37.279Z,7.60
2018-07-10T11:38:10.996Z,7.17
2018-07-10T11:40:43.189Z,6.83
2018-07-10T11:46:36.392Z,6.97
2018-07-10T11:49:18.606Z,6.60
2018-07-10T11:51:50.819Z,6.50
2018-07-10T11:54:20.681Z,7.10
2018-07-10T11:56:52.675Z,6.87
2018-07-10T11:59:23.790Z,6.63
2018-07-10T12:01:54.222Z,8.33
2018-07-10T12:04:27.199Z,6.93
2018-07-10T12:06:57.103Z,7.47
2018-07-10T12:09:40.978Z,5.73
2018-07-10T12:12:10.906Z,5.93
2018-07-10T12:14:40.835Z,5.73
2018-07-10T12:17:11.229Z,7.13
2018-07-10T12:19:42.385Z,5.97
2018-07-10T12:22:39.388Z,6.13
2018-07-10T12:25:09.764Z,7.10
2018-07-10T12:27:40.887Z,6.20
2018-07-10T12:30:10.765Z,6.47
2018-07-10T12:32:40.817Z,5.60
2018-07-10T12:35:13.120Z,5.63
2018-07-10T12:37:43.741Z,5.80
2018-07-10T12:40:14.723Z,5.70
2018-07-10T12:42:45.062Z,5.63
2018-07-10T12:45:15.875Z,5.10
2018-07-10T12:47:45.883Z,5.10
2018-07-10T12:50:24.109Z,5.33
2018-07-10T12:52:54.601Z,5.93
2018-07-10T12:55:26.299Z,5.70
2018-07-10T13:00:50.047Z,5.43
2018-07-10T13:03:23.275Z,5.20
2018-07-10T13:05:55.320Z,5.30
2018-07-10T13:08:26.495Z,5.17
2018-07-10T13:10:57.323Z,5.53
2018-07-10T13:13:27.163Z,6.00
2018-07-10T13:16:02.307Z,5.47
2018-07-10T13:18:34.868Z,5.37
2018-07-10T13:21:04.490Z,5.87
2018-07-10T13:23:34.742Z,5.17
2018-07-10T13:26:04.359Z,5.70
2018-07-10T13:28:35.486Z,5.30
2018-07-10T13:31:05.279Z,5.33
2018-07-10T13:33:35.020Z,5.27
2018-07-10T13:36:05.219Z,8.63
2018-07-10T13:38:35.560Z,5.60
2018-07-10T13:41:05.258Z,5.70
2018-07-10T13:43:36.263Z,4.80
2018-07-10T13:46:06.181Z,4.63
2018-07-10T13:48:47.009Z,4.03
2018-07-10T13:51:18.710Z,3.90
2018-07-10T13:53:49.543Z,4.13
2018-07-10T13:56:19.606Z,3.70
2018-07-10T13:59:04.304Z,3.40
2018-07-10T14:01:35.363Z,3.97
2018-07-10T14:04:05.782Z,4.13
2018-07-10T14:06:36.367Z,3.67
2018-07-10T14:09:06.279Z,3.90
2018-07-10T14:11:42.044Z,3.50
2018-07-10T14:14:12.883Z,3.23
2018-07-10T14:22:31.716Z,3.70
2018-07-10T14:25:01.428Z,4.00
2018-07-10T14:27:31.497Z,3.77
2018-07-10T14:30:02.323Z,4.80
2018-07-10T14:32:37.753Z,3.43
2018-07-10T14:35:07.373Z,3.50
2018-07-10T14:37:37.489Z,3.33
2018-07-10T14:40:07.280Z,3.30
2018-07-10T14:42:38.704Z,3.77
2018-07-10T14:45:08.688Z,3.93
2018-07-10T14:47:38.756Z,3.50
2018-07-10T14:50:08.500Z,3.13
2018-07-10T14:52:39.752Z,3.00
2018-07-10T14:55:09.961Z,3.03
2018-07-10T14:57:40.040Z,2.87
2018-07-10T15:00:10.140Z,2.97
2018-07-10T15:02:40.257Z,2.57
2018-07-10T15:05:09.921Z,2.50
2018-07-10T15:07:39.563Z,2.67
2018-07-10T15:10:12.045Z,2.57
2018-07-10T15:12:41.751Z,2.93
2018-07-10T15:15:11.912Z,3.00
2018-07-10T15:17:46.704Z,2.70
2018-07-10T15:26:05.067Z,2.40
2018-07-10T15:28:35.167Z,3.07
2018-07-10T15:31:04.969Z,2.97
2018-07-10T15:33:35.664Z,2.77
2018-07-10T15:36:06.873Z,2.57
2018-07-10T15:38:37.913Z,2.40
2018-07-10T15:41:08.318Z,4.23
2018-07-10T15:43:38.258Z,2.40
2018-07-10T15:46:13.366Z,2.70
2018-07-10T15:51:46.669Z,2.80
2018-07-10T15:54:16.915Z,2.90
2018-07-10T15:59:51.257Z,2.80
2018-07-10T16:08:29.140Z,2.60
2018-07-10T16:11:03.050Z,2.30
2018-07-10T16:26:32.829Z,2.10
2018-07-10T16:29:07.788Z,2.33
2018-07-10T16:31:41.363Z,2.30
2018-07-10T16:40:12.166Z,2.20
2018-07-10T16:42:48.304Z,2.53
2018-07-10T16:45:41.367Z,2.37
2018-07-10T16:53:08.865Z,2.37
2018-07-10T16:55:39.878Z,2.20
2018-07-10T16:58:10.526Z,2.43
2018-07-10T17:03:35.201Z,2.47
2018-07-10T17:06:20.068Z,2.10
2018-07-10T17:08:50.734Z,2.30
2018-07-10T17:14:26.897Z,2.30
2018-07-10T17:16:57.572Z,2.23
2018-07-10T17:19:31.331Z,2.30
2018-07-10T17:22:03.402Z,2.60
2018-07-10T17:24:34.883Z,2.20
2018-07-10T17:27:05.673Z,2.23
2018-07-10T17:29:36.940Z,2.20
2018-07-10T17:40:55.942Z,2.47
2018-07-10T17:43:27.333Z,2.53
2018-07-10T17:45:58.016Z,2.30
2018-07-10T17:48:40.931Z,2.30
2018-07-10T17:51:12.676Z,2.17
2018-07-10T17:53:50.352Z,2.07
2018-07-10T17:56:20.971Z,2.50
2018-07-10T17:58:57.764Z,2.10
2018-07-10T18:01:28.358Z,2.53
2018-07-10T18:10:03.839Z,2.10
2018-07-10T18:12:34.404Z,2.40
2018-07-10T18:15:05.074Z,2.30
2018-07-10T18:17:35.306Z,2.40
2018-07-10T18:20:05.767Z,2.40
2018-07-10T18:22:36.076Z,2.73
2018-07-10T18:25:11.911Z,2.63
2018-07-10T18:27:42.854Z,2.57
2018-07-10T18:30:12.988Z,2.47
2018-07-10T18:32:44.785Z,2.30
2018-07-10T18:35:14.668Z,2.40
2018-07-10T18:37:44.880Z,2.10
2018-07-10T18:40:15.054Z,2.10
2018-07-10T18:42:48.731Z,2.03
2018-07-10T18:45:18.938Z,2.00
2018-07-10T18:47:48.926Z,1.80
2018-07-10T18:50:19.208Z,2.80
2018-07-10T18:58:39.643Z,1.97
2018-07-10T19:01:37.248Z,2.20
2018-07-10T19:04:07.766Z,2.07
2018-07-10T19:06:37.887Z,2.13
2018-07-10T19:09:08.445Z,2.60
2018-07-10T19:11:39.027Z,2.50
2018-07-10T19:14:09.013Z,2.20
2018-07-10T19:16:41.788Z,3.43
2018-07-10T19:19:11.890Z,2.33
2018-07-10T19:21:46.849Z,2.27
2018-07-10T19:24:18.338Z,2.40
2018-07-10T19:26:49.507Z,2.27
2018-07-10T19:29:56.411Z,2.27
2018-07-10T19:35:25.894Z,2.13
2018-07-10T19:38:54.003Z,2.70
2018-07-10T19:41:54.325Z,2.60
2018-07-10T19:44:26.338Z,2.17
2018-07-10T19:47:00.627Z,3.67
2018-07-10T19:49:33.138Z,2.40
2018-07-10T19:52:14.233Z,2.33
2018-07-10T19:54:50.576Z,2.23
2018-07-10T19:57:45.581Z,3.80
2018-07-10T20:00:16.029Z,2.67
2018-07-10T20:02:46.380Z,2.30
2018-07-10T20:05:17.568Z,2.60
2018-07-10T20:07:52.351Z,2.50
2018-07-10T20:10:29.745Z,2.87
2018-07-10T20:14:03.833Z,3.40
2018-07-10T20:17:02.729Z,2.07
2018-07-10T20:38:27.768Z,2.50
2018-07-10T20:53:11.326Z,3.20
2018-07-10T20:56:01.873Z,2.20
2018-07-10T20:58:41.044Z,2.30
2018-07-10T21:03:57.280Z,2.93
2018-07-10T21:06:56.466Z,2.60
2018-07-10T21:09:35.655Z,2.30
2018-07-10T21:12:07.996Z,1.90
2018-07-10T21:15:07.536Z,3.00
2018-07-10T21:21:07.829Z,2.43
2018-07-10T21:23:48.587Z,2.77
2018-07-10T21:26:30.325Z,2.20
2018-07-10T21:29:14.127Z,2.43
2018-07-10T21:32:09.634Z,2.50
2018-07-10T21:34:49.267Z,2.47
2018-07-10T21:39:33.797Z,2.67
2018-07-10T21:42:34.349Z,2.80
2018-07-10T21:47:29.375Z,2.80
2018-07-10T21:50:02.192Z,2.60
2018-07-10T21:52:32.646Z,3.10
2018-07-10T22:02:12.320Z,2.00
2018-07-10T22:04:42.224Z,2.50
2018-07-10T22:07:14.085Z,2.57
2018-07-10T22:09:46.664Z,2.07
2018-07-10T22:12:23.829Z,2.20
2018-07-10T22:14:53.358Z,2.30
2018-07-10T22:17:41.579Z,2.60
2018-07-10T22:20:14.494Z,2.67
2018-07-10T22:22:46.767Z,2.33
2018-07-10T22:25:16.791Z,2.63
2018-07-10T22:27:46.465Z,2.33
2018-07-10T22:30:22.143Z,2.27
2018-07-10T22:33:02.161Z,3.17
2018-07-10T22:35:31.796Z,2.50
2018-07-10T22:40:58.345Z,2.50
2018-07-10T22:43:27.920Z,2.73
2018-07-10T22:45:57.539Z,2.77
2018-07-10T22:48:27.055Z,2.77
2018-07-10T22:50:56.700Z,2.90
2018-07-10T22:53:26.406Z,2.47
2018-07-10T22:55:57.340Z,2.47
2018-07-10T22:58:26.916Z,2.33
2018-07-10T23:00:56.538Z,2.70
2018-07-10T23:03:26.751Z,2.60
2018-07-10T23:05:56.515Z,2.33
2018-07-10T23:08:36.267Z,2.30
2018-07-10T23:11:08.134Z,2.83
2018-07-10T23:13:40.755Z,2.60
2018-07-10T23:16:10.710Z,2.50
2018-07-10T23:18:41.103Z,2.70
2018-07-10T23:21:14.503Z,2.23
2018-07-10T23:23:44.136Z,2.60
2018-07-10T23:26:15.827Z,2.63
2018-07-10T23:28:46.264Z,2.17
2018-07-10T23:31:16.077Z,2.50
2018-07-10T23:33:46.771Z,2.40
2018-07-10T23:36:16.366Z,2.20
2018-07-10T23:39:17.406Z,2.63
2018-07-10T23:41:57.003Z,2.20
2018-07-10T23:44:43.998Z,2.43
2018-07-10T23:47:40.969Z,2.33
2018-07-10T23:50:18.580Z,2.53
